createdAt,value
2018-09-28T00:00:49.410Z,7.47
2018-09-28T00:03:17.717Z,8.15
2018-09-28T00:05:46.032Z,7.97
2018-09-28T00:08:14.385Z,7.42
2018-09-28T00:10:42.675Z,7.57
2018-09-28T00:13:11.011Z,8.23
2018-09-28T00:15:39.350Z,8.80
2018-09-28T00:18:07.746Z,8.73
2018-09-28T00:20:36.042Z,7.20
2018-09-28T00:23:04.347Z,7.70
2018-09-28T00:25:32.694Z,7.85
2018-09-28T00:28:00.990Z,7.60
2018-09-28T00:30:29.263Z,8.03
2018-09-28T00:32:57.591Z,7.92
2018-09-28T00:35:25.962Z,8.10
2018-09-28T00:37:54.266Z,7.87
2018-09-28T00:40:22.543Z,7.20
2018-09-28T00:42:50.906Z,6.70
2018-09-28T00:45:19.262Z,7.60
2018-09-28T00:47:47.569Z,7.45
2018-09-28T00:50:15.860Z,7.60
2018-09-28T00:52:44.216Z,8.10
2018-09-28T00:55:13.391Z,8.58
2018-09-28T00:57:41.686Z,9.00
2018-09-28T01:00:10.023Z,10.50
2018-09-28T01:02:38.342Z,9.80
2018-09-28T01:05:06.649Z,10.43
2018-09-28T01:07:34.940Z,10.70
2018-09-28T01:10:03.563Z,11.90
2018-09-28T01:12:31.878Z,11.43
2018-09-28T01:15:00.199Z,11.95
2018-09-28T01:17:28.497Z,12.50
2018-09-28T01:19:56.814Z,12.28
2018-09-28T01:22:25.091Z,12.93
2018-09-28T01:24:53.425Z,12.75
2018-09-28T01:27:21.758Z,12.50
2018-09-28T01:29:50.123Z,12.80
2018-09-28T01:32:18.402Z,13.30
2018-09-28T01:34:46.853Z,12.60
2018-09-28T01:37:15.162Z,12.00
2018-09-28T01:39:43.586Z,11.43
2018-09-28T01:42:11.866Z,11.80
2018-09-28T01:44:40.248Z,11.50
2018-09-28T01:47:08.671Z,10.85
2018-09-28T01:49:36.985Z,11.48
2018-09-28T01:52:05.356Z,11.85
2018-09-28T01:54:33.668Z,11.93
2018-09-28T01:57:02.027Z,12.80
2018-09-28T01:59:30.339Z,12.53
2018-09-28T02:01:58.627Z,13.58
2018-09-28T02:04:26.999Z,13.60
2018-09-28T02:06:55.294Z,15.40
2018-09-28T02:09:23.605Z,15.43
2018-09-28T02:11:51.959Z,17.03
2018-09-28T02:14:20.291Z,18.37
2018-09-28T02:16:48.570Z,20.20
2018-09-28T02:19:16.912Z,20.60
2018-09-28T02:21:45.215Z,21.27
2018-09-28T02:24:13.518Z,20.72
2018-09-28T02:26:41.787Z,22.37
2018-09-28T02:29:10.070Z,19.90
2018-09-28T02:31:38.422Z,22.42
2018-09-28T02:34:06.982Z,21.77
2018-09-28T02:36:35.283Z,21.77
2018-09-28T02:39:04.235Z,21.73
2018-09-28T02:41:32.558Z,22.37
2018-09-28T02:44:00.842Z,22.30
2018-09-28T02:46:29.176Z,22.90
2018-09-28T02:48:57.474Z,23.38
2018-09-28T02:51:25.733Z,23.45
2018-09-28T02:53:54.030Z,23.70
2018-09-28T02:56:22.338Z,24.12
2018-09-28T02:58:50.667Z,22.20
2018-09-28T03:01:18.947Z,22.90
2018-09-28T03:03:47.210Z,22.70
2018-09-28T03:06:15.579Z,22.48
2018-09-28T03:08:43.895Z,23.00
2018-09-28T03:11:12.183Z,21.83
2018-09-28T03:13:40.481Z,21.48
2018-09-28T03:16:08.750Z,22.63
2018-09-28T03:18:37.322Z,23.40
2018-09-28T03:21:05.591Z,22.23
2018-09-28T03:23:36.791Z,22.50
2018-09-28T03:26:05.149Z,22.32
2018-09-28T03:28:33.366Z,23.40
2018-09-28T03:31:01.686Z,23.40
2018-09-28T03:33:29.938Z,22.77
2018-09-28T03:35:58.218Z,22.73
2018-09-28T03:38:26.511Z,24.03
2018-09-28T03:40:54.800Z,23.57
2018-09-28T03:43:23.067Z,23.75
2018-09-28T03:45:51.353Z,24.23
2018-09-28T03:48:19.642Z,24.50
2018-09-28T03:50:47.927Z,24.32
2018-09-28T03:53:16.182Z,25.00
2018-09-28T03:55:44.494Z,24.73
2018-09-28T03:58:12.773Z,23.95
2018-09-28T04:00:41.056Z,25.73
2018-09-28T04:03:09.328Z,26.10
2018-09-28T04:05:37.733Z,25.75
2018-09-28T04:08:06.016Z,27.15
2018-09-28T04:10:34.302Z,27.07
2018-09-28T04:13:02.623Z,28.25
2018-09-28T04:15:30.954Z,29.20
2018-09-28T04:17:59.267Z,28.23
2018-09-28T04:20:27.597Z,28.50
2018-09-28T04:22:55.891Z,28.85
2018-09-28T04:25:24.254Z,30.37
2018-09-28T04:27:52.550Z,30.03
2018-09-28T04:30:20.867Z,28.15
2018-09-28T04:32:49.193Z,29.07
2018-09-28T04:35:17.493Z,30.57
2018-09-28T04:37:45.800Z,29.17
2018-09-28T04:40:14.090Z,33.27
2018-09-28T04:42:42.401Z,32.70
2018-09-28T04:45:10.777Z,33.43
2018-09-28T04:47:39.035Z,31.80
2018-09-28T04:50:07.351Z,34.25
2018-09-28T04:52:35.634Z,34.47
2018-09-28T04:55:03.934Z,35.73
2018-09-28T04:57:32.251Z,33.48
2018-09-28T05:00:00.538Z,35.73
2018-09-28T05:02:28.849Z,37.77
2018-09-28T05:04:57.135Z,37.63
2018-09-28T05:07:25.444Z,38.15
2018-09-28T05:09:53.730Z,38.87
2018-09-28T05:12:22.103Z,36.70
2018-09-28T05:14:50.379Z,37.67
2018-09-28T05:17:18.668Z,36.80
2018-09-28T05:19:46.964Z,39.07
2018-09-28T05:22:15.246Z,38.10
2018-09-28T05:24:43.538Z,38.33
2018-09-28T05:27:11.914Z,38.67
2018-09-28T05:29:40.181Z,38.85
2018-09-28T05:32:08.599Z,38.88
2018-09-28T05:34:36.793Z,35.80
2018-09-28T05:37:05.357Z,35.68
2018-09-28T05:39:33.745Z,35.48
2018-09-28T05:42:02.831Z,33.80
2018-09-28T05:44:31.127Z,32.10
2018-09-28T05:46:59.467Z,32.03
2018-09-28T05:49:27.850Z,32.15
2018-09-28T05:51:56.255Z,32.20
2018-09-28T05:54:24.570Z,31.50
2018-09-28T05:56:52.936Z,31.33
2018-09-28T05:59:26.499Z,29.80
2018-09-28T06:02:00.139Z,30.90
2018-09-28T06:04:33.872Z,28.55
2018-09-28T06:07:02.194Z,29.17
2018-09-28T06:09:30.478Z,25.02
2018-09-28T06:11:59.288Z,25.00
2018-09-28T06:14:27.569Z,20.62
2018-09-28T06:16:55.850Z,20.33
2018-09-28T06:19:24.111Z,16.90
2018-09-28T06:21:52.382Z,15.33
2018-09-28T06:24:20.646Z,13.80
2018-09-28T06:26:48.925Z,11.97
2018-09-28T06:29:17.188Z,12.30
2018-09-28T06:31:45.494Z,10.97
2018-09-28T06:34:13.754Z,11.03
2018-09-28T06:36:42.044Z,11.90
2018-09-28T06:39:10.350Z,10.40
2018-09-28T06:41:38.677Z,8.83
2018-09-28T06:44:06.942Z,6.87
2018-09-28T06:46:35.239Z,6.20
2018-09-28T06:49:03.546Z,4.65
2018-09-28T06:51:31.814Z,5.20
2018-09-28T06:54:00.121Z,4.17
2018-09-28T06:56:28.383Z,4.37
2018-09-28T06:58:56.766Z,3.60
2018-09-28T07:01:25.075Z,4.08
2018-09-28T07:03:53.371Z,4.03
2018-09-28T07:06:21.774Z,4.70
2018-09-28T07:08:50.091Z,3.62
2018-09-28T07:11:18.363Z,4.17
2018-09-28T07:13:46.667Z,4.17
2018-09-28T07:16:15.000Z,3.00
2018-09-28T07:18:43.251Z,3.50
2018-09-28T07:21:11.499Z,5.00
2018-09-28T07:23:39.796Z,4.20
2018-09-28T07:26:08.075Z,4.87
2018-09-28T07:28:37.333Z,4.53
2018-09-28T07:31:05.607Z,4.20
2018-09-28T07:33:33.930Z,4.42
2018-09-28T07:36:02.314Z,3.87
2018-09-28T07:38:30.562Z,5.23
2018-09-28T07:40:58.843Z,4.10
2018-09-28T07:43:27.134Z,4.90
2018-09-28T07:45:55.407Z,4.15
2018-09-28T07:53:30.859Z,4.50
2018-09-28T07:55:59.261Z,5.03
2018-09-28T07:58:27.567Z,4.30
2018-09-28T08:01:01.402Z,4.60
2018-09-28T08:03:30.335Z,4.85
2018-09-28T08:06:00.019Z,4.70
2018-09-28T08:08:28.310Z,4.75
2018-09-28T08:10:56.598Z,4.78
2018-09-28T08:13:24.938Z,4.08
2018-09-28T08:15:53.235Z,4.07
2018-09-28T08:18:22.553Z,4.27
2018-09-28T08:20:51.210Z,4.20
2018-09-28T08:23:19.584Z,4.35
2018-09-28T08:25:47.899Z,4.15
2018-09-28T08:28:16.206Z,4.30
2018-09-28T08:30:44.542Z,4.30
2018-09-28T08:33:12.859Z,3.90
2018-09-28T08:35:41.159Z,4.23
2018-09-28T08:38:09.469Z,4.50
2018-09-28T08:40:37.774Z,4.10
2018-09-28T08:43:06.144Z,4.22
2018-09-28T08:45:34.463Z,4.00
2018-09-28T08:48:02.796Z,4.03
2018-09-28T08:50:31.093Z,4.20
2018-09-28T08:52:59.422Z,4.50
2018-09-28T08:55:27.758Z,4.90
2018-09-28T08:57:56.066Z,4.63
2018-09-28T09:00:24.397Z,4.10
2018-09-28T09:02:52.711Z,4.50
2018-09-28T09:05:21.035Z,4.30
2018-09-28T09:07:49.430Z,3.80
2018-09-28T09:10:17.746Z,3.72
2018-09-28T09:12:46.051Z,4.43
2018-09-28T09:15:14.361Z,3.60
2018-09-28T09:17:42.639Z,4.22
2018-09-28T09:20:10.942Z,4.05
2018-09-28T09:22:39.215Z,4.50
2018-09-28T09:25:07.543Z,4.00
2018-09-28T09:27:35.854Z,4.10
2018-09-28T09:30:04.463Z,3.77
2018-09-28T09:32:32.727Z,3.93
2018-09-28T09:35:01.780Z,4.80
2018-09-28T09:37:30.856Z,4.50
2018-09-28T09:39:59.979Z,4.85
2018-09-28T09:42:29.069Z,3.80
2018-09-28T09:44:57.641Z,4.50
2018-09-28T09:47:26.631Z,4.07
2018-09-28T09:49:55.730Z,5.62
2018-09-28T09:52:24.729Z,3.92
2018-09-28T09:54:53.707Z,4.00
2018-09-28T09:57:22.699Z,3.50
2018-09-28T09:59:51.831Z,4.00
2018-09-28T10:02:26.887Z,3.72
2018-09-28T10:04:55.224Z,3.13
2018-09-28T10:07:23.498Z,3.40
2018-09-28T10:09:51.798Z,3.70
2018-09-28T10:12:20.180Z,3.10
2018-09-28T10:14:48.478Z,3.30
2018-09-28T10:17:16.759Z,3.22
2018-09-28T10:19:45.167Z,3.55
2018-09-28T10:22:13.432Z,3.50
2018-09-28T10:24:42.775Z,3.17
2018-09-28T10:27:12.038Z,3.50
2018-09-28T10:29:40.449Z,3.17
2018-09-28T10:32:08.866Z,3.70
2018-09-28T10:34:37.215Z,3.17
2018-09-28T10:37:05.587Z,3.50
2018-09-28T10:39:33.886Z,3.40
2018-09-28T10:42:02.274Z,3.10
2018-09-28T10:44:30.554Z,3.20
2018-09-28T10:46:58.874Z,3.45
2018-09-28T10:49:27.211Z,3.62
2018-09-28T10:51:55.576Z,3.17
2018-09-28T10:54:23.825Z,3.67
2018-09-28T10:56:52.169Z,3.77
2018-09-28T10:59:20.482Z,3.00
2018-09-28T11:01:48.851Z,3.60
2018-09-28T11:04:17.149Z,3.50
2018-09-28T11:06:45.470Z,3.27
2018-09-28T11:09:13.960Z,3.00
2018-09-28T11:11:42.762Z,3.00
2018-09-28T11:14:11.243Z,3.60
2018-09-28T11:16:40.020Z,3.37
2018-09-28T11:19:08.319Z,3.20
2018-09-28T11:21:36.659Z,3.42
2018-09-28T11:24:04.958Z,3.17
2018-09-28T11:26:34.322Z,2.80
2018-09-28T11:29:02.603Z,3.30
2018-09-28T11:31:30.906Z,3.80
2018-09-28T11:33:59.220Z,3.55
2018-09-28T11:36:27.547Z,3.15
2018-09-28T11:38:55.844Z,2.95
2018-09-28T11:41:24.171Z,3.55
2018-09-28T11:43:52.471Z,3.50
2018-09-28T11:46:20.794Z,3.70
2018-09-28T11:48:49.117Z,3.30
2018-09-28T11:51:17.460Z,3.97
2018-09-28T11:53:45.746Z,3.03
2018-09-28T11:56:14.070Z,3.20
2018-09-28T11:58:42.371Z,3.22
2018-09-28T12:01:10.692Z,3.00
2018-09-28T12:03:39.043Z,3.22
2018-09-28T12:06:07.349Z,2.90
2018-09-28T12:08:35.746Z,3.70
2018-09-28T12:11:04.505Z,3.20
2018-09-28T12:13:32.864Z,2.90
2018-09-28T12:16:01.078Z,3.12
2018-09-28T12:18:29.393Z,3.30
2018-09-28T12:20:57.686Z,2.44
2018-09-28T12:23:25.979Z,3.10
2018-09-28T12:25:54.249Z,2.80
2018-09-28T12:28:22.560Z,2.42
2018-09-28T12:30:50.901Z,2.37
2018-09-28T12:33:19.217Z,6.08
2018-09-28T12:35:47.467Z,4.10
2018-09-28T12:38:15.750Z,2.90
2018-09-28T12:40:44.069Z,2.50
2018-09-28T12:43:12.378Z,2.50
2018-09-28T12:45:40.721Z,2.20
2018-09-28T12:48:09.026Z,2.70
2018-09-28T12:50:37.343Z,3.55
2018-09-28T12:53:05.627Z,2.60
2018-09-28T12:55:33.926Z,2.63
2018-09-28T12:58:02.245Z,3.25
2018-09-28T13:00:30.557Z,3.43
2018-09-28T13:02:59.947Z,3.10
2018-09-28T13:05:28.228Z,2.90
2018-09-28T13:07:56.595Z,3.23
2018-09-28T13:10:24.887Z,2.75
2018-09-28T13:12:53.231Z,3.50
2018-09-28T13:15:21.518Z,2.80
2018-09-28T13:17:49.868Z,2.85
2018-09-28T13:20:18.184Z,2.55
2018-09-28T13:22:47.564Z,3.20
2018-09-28T13:25:15.906Z,3.45
2018-09-28T13:27:44.199Z,3.80
2018-09-28T13:30:12.561Z,3.10
2018-09-28T13:32:40.859Z,2.90
2018-09-28T13:35:09.203Z,2.75
2018-09-28T13:37:37.503Z,3.10
2018-09-28T13:40:05.821Z,2.47
2018-09-28T13:42:34.545Z,2.80
2018-09-28T13:45:02.958Z,2.30
2018-09-28T13:47:31.221Z,2.50
2018-09-28T13:49:59.549Z,2.85
2018-09-28T13:52:27.924Z,2.52
2018-09-28T13:54:56.204Z,3.07
2018-09-28T13:57:24.498Z,2.70
2018-09-28T13:59:52.818Z,2.60
2018-09-28T14:02:22.204Z,2.40
2018-09-28T14:04:50.517Z,2.30
2018-09-28T14:07:18.939Z,1.60
2018-09-28T14:09:47.211Z,1.70
2018-09-28T14:12:15.546Z,2.17
2018-09-28T14:14:43.870Z,1.92
2018-09-28T14:17:12.121Z,1.93
2018-09-28T14:19:40.406Z,2.20
2018-09-28T14:22:09.112Z,2.10
2018-09-28T14:24:37.522Z,2.12
2018-09-28T14:27:05.755Z,2.30
2018-09-28T14:29:34.018Z,1.80
2018-09-28T14:32:02.326Z,2.10
2018-09-28T14:34:30.628Z,2.50
2018-09-28T14:36:59.954Z,2.05
2018-09-28T14:39:29.309Z,2.00
2018-09-28T14:41:57.615Z,1.80
2018-09-28T14:44:30.484Z,2.05
2018-09-28T14:46:58.774Z,1.80
2018-09-28T14:49:27.092Z,2.70
2018-09-28T14:51:55.394Z,2.40
2018-09-28T14:54:23.901Z,2.13
2018-09-28T14:56:52.178Z,2.27
2018-09-28T14:59:20.463Z,2.27
2018-09-28T15:01:48.794Z,2.20
2018-09-28T15:04:17.244Z,2.08
2018-09-28T15:06:45.608Z,2.37
2018-09-28T15:09:13.874Z,1.50
2018-09-28T15:11:42.185Z,2.05
2018-09-28T15:14:10.699Z,2.22
2018-09-28T15:16:39.296Z,1.90
2018-09-28T15:19:07.584Z,2.30
2018-09-28T15:21:35.926Z,2.23
2018-09-28T15:24:04.253Z,2.00
2018-09-28T15:26:32.650Z,2.52
2018-09-28T15:29:00.940Z,1.83
2018-09-28T15:31:29.270Z,1.80
2018-09-28T15:33:57.573Z,2.20
2018-09-28T15:36:25.886Z,1.95
2018-09-28T15:38:54.211Z,2.10
2018-09-28T15:41:22.522Z,1.72
2018-09-28T15:43:50.808Z,2.37
2018-09-28T15:46:19.138Z,2.30
2018-09-28T15:48:47.442Z,1.85
2018-09-28T15:51:15.758Z,2.27
2018-09-28T15:53:44.055Z,2.00
2018-09-28T15:56:12.360Z,2.12
2018-09-28T15:58:41.038Z,2.42
2018-09-28T16:01:09.395Z,2.53
2018-09-28T16:03:37.680Z,2.50
2018-09-28T16:06:05.987Z,2.60
2018-09-28T16:08:34.290Z,2.50
2018-09-28T16:11:02.602Z,2.53
2018-09-28T16:13:30.950Z,2.90
2018-09-28T16:15:59.234Z,2.30
2018-09-28T16:18:27.768Z,2.35
2018-09-28T16:20:56.083Z,2.37
2018-09-28T16:23:24.398Z,2.10
2018-09-28T16:25:52.694Z,2.27
2018-09-28T16:28:21.011Z,2.40
2018-09-28T16:30:49.324Z,2.25
2018-09-28T16:33:17.655Z,2.20
2018-09-28T16:35:45.967Z,2.50
2018-09-28T16:38:14.310Z,2.30
2018-09-28T16:40:42.589Z,2.30
2018-09-28T16:43:10.915Z,2.30
2018-09-28T16:45:39.213Z,2.10
2018-09-28T16:48:07.543Z,2.40
2018-09-28T16:50:36.013Z,2.70
2018-09-28T16:53:05.010Z,2.60
2018-09-28T16:55:33.834Z,3.10
2018-09-28T16:58:02.166Z,2.30
2018-09-28T17:00:30.498Z,2.20
2018-09-28T17:02:58.874Z,2.40
2018-09-28T17:05:27.650Z,2.43
2018-09-28T17:07:56.983Z,2.67
2018-09-28T17:10:25.751Z,2.40
2018-09-28T17:12:54.063Z,2.60
2018-09-28T17:15:22.365Z,2.23
2018-09-28T17:17:50.658Z,2.20
2018-09-28T17:20:19.012Z,2.55
2018-09-28T17:22:47.324Z,2.70
2018-09-28T17:25:15.641Z,2.60
2018-09-28T17:27:44.424Z,2.55
2018-09-28T17:30:12.868Z,2.90
2018-09-28T17:32:41.672Z,2.50
2018-09-28T17:35:10.418Z,2.37
2018-09-28T17:37:39.331Z,2.52
2018-09-28T17:40:07.695Z,2.60
2018-09-28T17:42:35.986Z,2.53
2018-09-28T17:45:05.155Z,2.60
2018-09-28T17:47:34.209Z,2.30
2018-09-28T17:50:02.555Z,2.42
2018-09-28T17:52:30.839Z,2.30
2018-09-28T17:54:59.155Z,2.20
2018-09-28T17:57:27.439Z,2.45
2018-09-28T17:59:55.727Z,1.80
2018-09-28T18:02:24.032Z,2.72
2018-09-28T18:04:52.351Z,2.62
2018-09-28T18:07:20.714Z,2.37
2018-09-28T18:09:49.019Z,2.33
2018-09-28T18:12:17.347Z,2.33
2018-09-28T18:14:45.655Z,2.75
2018-09-28T18:17:13.943Z,2.80
2018-09-28T18:19:42.266Z,2.35
2018-09-28T18:22:10.591Z,2.30
2018-09-28T18:24:38.927Z,2.60
2018-09-28T18:27:07.592Z,2.77
2018-09-28T18:29:35.890Z,3.00
2018-09-28T18:32:04.178Z,2.83
2018-09-28T18:34:32.834Z,2.90
2018-09-28T18:37:01.655Z,2.30
2018-09-28T18:39:29.971Z,2.50
2018-09-28T18:41:58.303Z,2.40
2018-09-28T18:44:26.599Z,2.60
2018-09-28T18:46:55.295Z,3.05
2018-09-28T18:49:23.617Z,2.37
2018-09-28T18:51:51.947Z,2.40
2018-09-28T18:54:20.244Z,3.10
2018-09-28T18:56:48.543Z,2.80
2018-09-28T18:59:16.851Z,2.50
2018-09-28T19:01:45.145Z,2.70
2018-09-28T19:04:13.436Z,2.80
2018-09-28T19:06:41.747Z,2.70
2018-09-28T19:09:11.314Z,3.10
2018-09-28T19:11:40.125Z,2.50
2018-09-28T19:14:08.435Z,2.77
2018-09-28T19:16:36.802Z,2.42
2018-09-28T19:19:05.085Z,2.40
2018-09-28T19:21:33.450Z,3.10
2018-09-28T19:24:01.718Z,3.20
2018-09-28T19:26:30.003Z,2.70
2018-09-28T19:28:58.273Z,2.98
2018-09-28T19:31:26.563Z,2.60
2018-09-28T19:33:54.838Z,2.70
2018-09-28T19:36:23.134Z,2.97
2018-09-28T19:38:51.415Z,2.97
2018-09-28T19:41:19.709Z,3.52
2018-09-28T19:43:47.983Z,3.17
2018-09-28T19:46:16.326Z,3.55
2018-09-28T19:48:44.607Z,3.40
2018-09-28T19:51:12.922Z,3.17
2018-09-28T19:53:41.191Z,3.92
2018-09-28T19:56:10.307Z,3.20
2018-09-28T19:58:38.938Z,3.05
2018-09-28T20:01:07.500Z,2.83
2018-09-28T20:03:35.810Z,2.80
2018-09-28T20:06:04.166Z,2.50
2018-09-28T20:08:32.486Z,2.90
2018-09-28T20:11:00.794Z,2.70
2018-09-28T20:13:29.106Z,2.80
2018-09-28T20:15:57.378Z,2.50
2018-09-28T20:18:25.646Z,3.40
2018-09-28T20:20:53.919Z,3.67
2018-09-28T20:23:22.239Z,3.00
2018-09-28T20:25:50.580Z,2.63
2018-09-28T20:28:18.882Z,2.60
2018-09-28T20:30:47.179Z,2.77
2018-09-28T20:33:15.458Z,3.10
2018-09-28T20:35:44.790Z,3.02
2018-09-28T20:38:13.106Z,2.42
2018-09-28T20:40:41.386Z,2.67
2018-09-28T20:43:09.687Z,2.90
2018-09-28T20:45:37.978Z,2.80
2018-09-28T20:48:06.594Z,3.53
2018-09-28T20:50:34.862Z,2.80
2018-09-28T20:53:03.202Z,3.20
2018-09-28T20:55:31.554Z,2.70
2018-09-28T20:57:59.846Z,3.20
2018-09-28T21:00:28.113Z,2.85
2018-09-28T21:02:56.408Z,2.70
2018-09-28T21:05:24.711Z,3.33
2018-09-28T21:07:52.998Z,2.40
2018-09-28T21:10:21.263Z,2.83
2018-09-28T21:12:49.871Z,2.50
2018-09-28T21:15:19.178Z,3.02
2018-09-28T21:17:47.475Z,2.58
2018-09-28T21:20:15.774Z,2.30
2018-09-28T21:22:44.070Z,2.50
2018-09-28T21:25:12.346Z,2.70
2018-09-28T21:27:40.697Z,2.70
2018-09-28T21:30:08.967Z,2.60
2018-09-28T21:32:37.274Z,2.40
2018-09-28T21:35:05.905Z,2.60
2018-09-28T21:37:34.232Z,2.58
2018-09-28T21:40:02.498Z,4.35
2018-09-28T21:42:30.780Z,3.03
2018-09-28T21:44:59.054Z,3.00
2018-09-28T21:47:27.322Z,2.70
2018-09-28T21:49:55.813Z,2.50
2018-09-28T21:52:24.125Z,3.37
2018-09-28T21:54:53.454Z,2.50
2018-09-28T21:57:21.742Z,2.80
2018-09-28T21:59:50.079Z,2.50
2018-09-28T22:02:18.365Z,3.00
2018-09-28T22:04:46.693Z,2.80
2018-09-28T22:07:14.962Z,3.30
2018-09-28T22:09:43.271Z,2.90
2018-09-28T22:12:11.818Z,3.27
2018-09-28T22:14:40.221Z,3.37
2018-09-28T22:17:08.506Z,2.90
2018-09-28T22:19:36.803Z,3.13
2018-09-28T22:22:05.098Z,3.60
2018-09-28T22:24:33.434Z,3.70
2018-09-28T22:27:01.742Z,3.45
2018-09-28T22:29:30.048Z,3.85
2018-09-28T22:31:58.338Z,4.00
2018-09-28T22:34:26.662Z,3.20
2018-09-28T22:36:54.945Z,2.85
2018-09-28T22:39:23.241Z,3.80
2018-09-28T22:41:51.532Z,3.37
2018-09-28T22:44:19.839Z,3.55
2018-09-28T22:46:48.134Z,3.20
2018-09-28T22:49:16.430Z,3.90
2018-09-28T22:51:44.717Z,2.70
2018-09-28T22:54:13.028Z,3.47
2018-09-28T22:56:41.326Z,3.15
2018-09-28T22:59:09.639Z,3.20
2018-09-28T23:01:39.151Z,3.58
2018-09-28T23:04:08.468Z,2.95
2018-09-28T23:06:36.755Z,3.50
2018-09-28T23:09:06.528Z,3.20
2018-09-28T23:11:34.823Z,3.70
2018-09-28T23:14:03.167Z,3.10
2018-09-28T23:16:31.454Z,3.20
2018-09-28T23:18:59.742Z,3.17
2018-09-28T23:21:28.053Z,3.10
2018-09-28T23:23:56.330Z,3.30
2018-09-28T23:26:24.595Z,2.98
2018-09-28T23:28:52.889Z,3.30
2018-09-28T23:31:21.172Z,3.10
2018-09-28T23:33:49.479Z,3.42
2018-09-28T23:36:17.742Z,3.70
2018-09-28T23:38:46.028Z,3.70
2018-09-28T23:41:14.286Z,3.58
2018-09-28T23:43:42.600Z,3.67
2018-09-28T23:46:10.854Z,3.20
2018-09-28T23:48:39.130Z,3.20
2018-09-28T23:51:07.474Z,3.52
2018-09-28T23:53:35.831Z,3.00
2018-09-28T23:56:04.085Z,3.00
2018-09-28T23:58:32.362Z,3.45
